< < Back
Terminal Aerodrome Forecast


Current Version              Previous Versions:   1  2  3  4  5  6  7  8  9  

Terminal Aerodrome Forecast

684
FTUS42 KJAX 011100
TAFGNV
TAF
KGNV 011120Z 0112/0212 01003KT P6SM BKN030 BKN050
     FM011500 05005KT P6SM SCT025 BKN050
     FM011800 05006KT P6SM VCSH BKN035
     FM020000 06004KT P6SM SCT040 BKN250=

Latest METAR

132
SAUS70 KWBC 011400 RRI
MTRGNV
METAR KGNV 011353Z 02003KT 10SM OVC027 24/21 A2996 RMK AO2 RAB19E34
SLP142 P0000 T02390211


USA.gov is the U.S. government's official web portal to all federal, state and local government web resources and services.